sensor_id;sensor_type;location;lat;lon;timestamp;temperature;humidity
38223;DHT22;24024;51.186;6.458;2023-07-28T00:02:16;19.50;81.00
38223;DHT22;24024;51.186;6.458;2023-07-28T00:04:45;19.50;80.60
38223;DHT22;24024;51.186;6.458;2023-07-28T00:07:12;19.60;80.40
38223;DHT22;24024;51.186;6.458;2023-07-28T00:09:38;19.60;80.50
38223;DHT22;24024;51.186;6.458;2023-07-28T00:12:05;19.60;80.40
38223;DHT22;24024;51.186;6.458;2023-07-28T00:14:32;19.80;80.10
38223;DHT22;24024;51.186;6.458;2023-07-28T00:17:01;19.80;80.00
38223;DHT22;24024;51.186;6.458;2023-07-28T00:19:28;19.90;79.50
38223;DHT22;24024;51.186;6.458;2023-07-28T00:21:55;20.00;79.40
38223;DHT22;24024;51.186;6.458;2023-07-28T00:24:22;19.90;79.60
38223;DHT22;24024;51.186;6.458;2023-07-28T00:26:51;19.90;79.60
38223;DHT22;24024;51.186;6.458;2023-07-28T00:29:20;20.00;79.80
38223;DHT22;24024;51.186;6.458;2023-07-28T00:31:49;19.90;80.00
38223;DHT22;24024;51.186;6.458;2023-07-28T00:34:19;20.00;79.90
38223;DHT22;24024;51.186;6.458;2023-07-28T00:36:46;19.90;79.90
38223;DHT22;24024;51.186;6.458;2023-07-28T00:39:13;20.00;79.70
38223;DHT22;24024;51.186;6.458;2023-07-28T00:41:40;19.80;80.50
38223;DHT22;24024;51.186;6.458;2023-07-28T00:44:06;20.00;79.90
38223;DHT22;24024;51.186;6.458;2023-07-28T00:46:38;20.10;79.60
38223;DHT22;24024;51.186;6.458;2023-07-28T00:49:05;20.30;78.90
38223;DHT22;24024;51.186;6.458;2023-07-28T00:51:35;20.30;78.70
38223;DHT22;24024;51.186;6.458;2023-07-28T00:54:04;20.20;78.80
38223;DHT22;24024;51.186;6.458;2023-07-28T00:56:32;20.20;79.10
38223;DHT22;24024;51.186;6.458;2023-07-28T00:59:02;20.30;78.90
38223;DHT22;24024;51.186;6.458;2023-07-28T01:01:28;20.20;79.00
38223;DHT22;24024;51.186;6.458;2023-07-28T01:03:58;20.20;79.20
38223;DHT22;24024;51.186;6.458;2023-07-28T01:09:16;20.30;79.20
38223;DHT22;24024;51.186;6.458;2023-07-28T01:11:58;20.30;78.80
38223;DHT22;24024;51.186;6.458;2023-07-28T01:14:25;20.40;78.40
38223;DHT22;24024;51.186;6.458;2023-07-28T01:16:54;20.40;78.70
38223;DHT22;24024;51.186;6.458;2023-07-28T01:19:21;20.40;78.80
38223;DHT22;24024;51.186;6.458;2023-07-28T01:24:45;20.30;79.20
38223;DHT22;24024;51.186;6.458;2023-07-28T01:27:15;20.40;79.00
38223;DHT22;24024;51.186;6.458;2023-07-28T01:29:43;20.10;79.70
38223;DHT22;24024;51.186;6.458;2023-07-28T01:32:14;20.10;80.10
38223;DHT22;24024;51.186;6.458;2023-07-28T01:34:43;20.10;80.00
38223;DHT22;24024;51.186;6.458;2023-07-28T01:37:10;19.90;80.60
38223;DHT22;24024;51.186;6.458;2023-07-28T01:39:37;20.00;80.60
38223;DHT22;24024;51.186;6.458;2023-07-28T01:42:04;20.10;80.30
38223;DHT22;24024;51.186;6.458;2023-07-28T01:44:31;20.00;80.30
38223;DHT22;24024;51.186;6.458;2023-07-28T01:46:57;20.10;80.10
38223;DHT22;24024;51.186;6.458;2023-07-28T01:49:24;20.20;79.50
38223;DHT22;24024;51.186;6.458;2023-07-28T01:51:53;20.20;79.70
38223;DHT22;24024;51.186;6.458;2023-07-28T01:54:20;20.10;79.90
38223;DHT22;24024;51.186;6.458;2023-07-28T01:56:47;20.10;80.10
38223;DHT22;24024;51.186;6.458;2023-07-28T01:59:13;20.10;80.10
38223;DHT22;24024;51.186;6.458;2023-07-28T02:01:43;20.20;79.70
38223;DHT22;24024;51.186;6.458;2023-07-28T02:04:12;20.30;79.40
38223;DHT22;24024;51.186;6.458;2023-07-28T02:06:39;20.30;79.40
38223;DHT22;24024;51.186;6.458;2023-07-28T02:09:05;20.50;78.90
38223;DHT22;24024;51.186;6.458;2023-07-28T02:11:34;20.30;79.40
38223;DHT22;24024;51.186;6.458;2023-07-28T02:14:03;20.20;79.90
38223;DHT22;24024;51.186;6.458;2023-07-28T02:16:32;20.10;80.20
38223;DHT22;24024;51.186;6.458;2023-07-28T02:19:00;20.30;79.80
38223;DHT22;24024;51.186;6.458;2023-07-28T02:21:29;20.30;79.70
38223;DHT22;24024;51.186;6.458;2023-07-28T02:23:57;20.30;79.60
38223;DHT22;24024;51.186;6.458;2023-07-28T02:26:24;20.50;79.30
38223;DHT22;24024;51.186;6.458;2023-07-28T02:28:50;20.60;78.90
38223;DHT22;24024;51.186;6.458;2023-07-28T02:31:17;20.50;78.80
38223;DHT22;24024;51.186;6.458;2023-07-28T02:33:49;20.40;79.50
38223;DHT22;24024;51.186;6.458;2023-07-28T02:36:15;20.00;80.70
38223;DHT22;24024;51.186;6.458;2023-07-28T02:38:42;20.20;80.30
38223;DHT22;24024;51.186;6.458;2023-07-28T02:41:09;20.50;79.50
38223;DHT22;24024;51.186;6.458;2023-07-28T02:43:36;20.30;79.40
38223;DHT22;24024;51.186;6.458;2023-07-28T02:46:03;20.10;80.70
38223;DHT22;24024;51.186;6.458;2023-07-28T02:48:32;20.00;81.10
38223;DHT22;24024;51.186;6.458;2023-07-28T02:50:59;20.30;80.00
38223;DHT22;24024;51.186;6.458;2023-07-28T02:53:26;20.40;79.60
38223;DHT22;24024;51.186;6.458;2023-07-28T02:55:58;20.60;79.10
38223;DHT22;24024;51.186;6.458;2023-07-28T02:58:25;20.60;79.00
38223;DHT22;24024;51.186;6.458;2023-07-28T03:00:52;20.60;78.70
38223;DHT22;24024;51.186;6.458;2023-07-28T03:03:21;20.60;78.50
38223;DHT22;24024;51.186;6.458;2023-07-28T03:05:52;20.60;78.70
38223;DHT22;24024;51.186;6.458;2023-07-28T03:08:20;20.60;79.00
38223;DHT22;24024;51.186;6.458;2023-07-28T03:10:47;20.60;78.90
38223;DHT22;24024;51.186;6.458;2023-07-28T03:13:14;20.60;79.00
38223;DHT22;24024;51.186;6.458;2023-07-28T03:15:43;20.70;78.70
38223;DHT22;24024;51.186;6.458;2023-07-28T03:18:14;20.60;78.80
38223;DHT22;24024;51.186;6.458;2023-07-28T03:20:41;20.60;78.60
38223;DHT22;24024;51.186;6.458;2023-07-28T03:23:10;20.50;79.20
38223;DHT22;24024;51.186;6.458;2023-07-28T03:25:36;20.40;79.30
38223;DHT22;24024;51.186;6.458;2023-07-28T03:28:08;20.40;79.90
38223;DHT22;24024;51.186;6.458;2023-07-28T03:30:37;20.40;79.30
38223;DHT22;24024;51.186;6.458;2023-07-28T03:33:04;20.50;79.40
38223;DHT22;24024;51.186;6.458;2023-07-28T03:35:31;20.40;79.70
38223;DHT22;24024;51.186;6.458;2023-07-28T03:37:57;20.30;80.00
38223;DHT22;24024;51.186;6.458;2023-07-28T03:40:24;20.30;80.30
38223;DHT22;24024;51.186;6.458;2023-07-28T03:42:54;20.50;79.70
38223;DHT22;24024;51.186;6.458;2023-07-28T03:45:20;20.50;79.70
38223;DHT22;24024;51.186;6.458;2023-07-28T03:47:47;20.30;80.10
38223;DHT22;24024;51.186;6.458;2023-07-28T03:50:14;20.20;80.40
38223;DHT22;24024;51.186;6.458;2023-07-28T03:52:41;20.30;80.20
38223;DHT22;24024;51.186;6.458;2023-07-28T03:55:10;20.10;80.90
38223;DHT22;24024;51.186;6.458;2023-07-28T03:57:39;20.20;80.70
38223;DHT22;24024;51.186;6.458;2023-07-28T04:00:06;20.20;80.70
38223;DHT22;24024;51.186;6.458;2023-07-28T04:02:33;20.10;80.70
38223;DHT22;24024;51.186;6.458;2023-07-28T04:05:00;20.10;80.90
38223;DHT22;24024;51.186;6.458;2023-07-28T04:07:27;20.20;80.50
38223;DHT22;24024;51.186;6.458;2023-07-28T04:09:59;20.30;80.50
38223;DHT22;24024;51.186;6.458;2023-07-28T04:12:25;20.10;80.90
38223;DHT22;24024;51.186;6.458;2023-07-28T04:14:55;20.20;80.80
38223;DHT22;24024;51.186;6.458;2023-07-28T04:17:23;20.10;81.10
38223;DHT22;24024;51.186;6.458;2023-07-28T04:19:52;20.30;80.70
38223;DHT22;24024;51.186;6.458;2023-07-28T04:22:19;20.20;80.90
38223;DHT22;24024;51.186;6.458;2023-07-28T04:24:50;20.10;81.20
38223;DHT22;24024;51.186;6.458;2023-07-28T04:27:20;20.30;80.70
38223;DHT22;24024;51.186;6.458;2023-07-28T04:29:49;20.40;80.30
38223;DHT22;24024;51.186;6.458;2023-07-28T04:32:16;20.30;80.60
38223;DHT22;24024;51.186;6.458;2023-07-28T04:34:55;20.30;80.70
38223;DHT22;24024;51.186;6.458;2023-07-28T04:37:22;20.50;80.40
38223;DHT22;24024;51.186;6.458;2023-07-28T04:39:51;20.50;80.10
38223;DHT22;24024;51.186;6.458;2023-07-28T04:42:20;20.50;79.90
38223;DHT22;24024;51.186;6.458;2023-07-28T04:44:49;20.50;80.10
38223;DHT22;24024;51.186;6.458;2023-07-28T04:47:16;20.50;80.10
38223;DHT22;24024;51.186;6.458;2023-07-28T04:49:45;20.50;80.20
38223;DHT22;24024;51.186;6.458;2023-07-28T04:52:11;20.60;80.00
38223;DHT22;24024;51.186;6.458;2023-07-28T04:54:38;20.60;79.80
38223;DHT22;24024;51.186;6.458;2023-07-28T04:57:07;20.80;79.60
38223;DHT22;24024;51.186;6.458;2023-07-28T04:59:36;20.80;79.30
38223;DHT22;24024;51.186;6.458;2023-07-28T05:02:03;20.60;79.80
38223;DHT22;24024;51.186;6.458;2023-07-28T05:04:32;20.60;79.70
38223;DHT22;24024;51.186;6.458;2023-07-28T05:07:01;20.50;80.60
38223;DHT22;24024;51.186;6.458;2023-07-28T05:09:28;20.60;80.20
38223;DHT22;24024;51.186;6.458;2023-07-28T05:11:58;20.60;80.00
38223;DHT22;24024;51.186;6.458;2023-07-28T05:14:25;20.60;79.80
38223;DHT22;24024;51.186;6.458;2023-07-28T05:16:54;20.50;80.30
38223;DHT22;24024;51.186;6.458;2023-07-28T05:19:20;20.70;79.70
38223;DHT22;24024;51.186;6.458;2023-07-28T05:21:47;20.60;79.90
38223;DHT22;24024;51.186;6.458;2023-07-28T05:24:14;20.50;80.30
38223;DHT22;24024;51.186;6.458;2023-07-28T05:26:44;20.70;80.00
38223;DHT22;24024;51.186;6.458;2023-07-28T05:29:11;20.60;80.10
38223;DHT22;24024;51.186;6.458;2023-07-28T05:31:42;20.70;80.10
38223;DHT22;24024;51.186;6.458;2023-07-28T05:34:11;20.60;80.30
38223;DHT22;24024;51.186;6.458;2023-07-28T05:36:39;20.60;80.30
38223;DHT22;24024;51.186;6.458;2023-07-28T05:39:06;20.80;80.00
38223;DHT22;24024;51.186;6.458;2023-07-28T05:41:33;20.60;80.10
38223;DHT22;24024;51.186;6.458;2023-07-28T05:44:00;20.60;80.50
38223;DHT22;24024;51.186;6.458;2023-07-28T05:46:29;20.60;80.60
38223;DHT22;24024;51.186;6.458;2023-07-28T05:48:57;20.60;80.30
38223;DHT22;24024;51.186;6.458;2023-07-28T05:51:26;20.70;80.10
38223;DHT22;24024;51.186;6.458;2023-07-28T05:53:53;20.60;80.30
38223;DHT22;24024;51.186;6.458;2023-07-28T05:56:20;20.70;80.20
38223;DHT22;24024;51.186;6.458;2023-07-28T05:58:47;20.50;80.70
38223;DHT22;24024;51.186;6.458;2023-07-28T06:01:14;20.40;81.20
38223;DHT22;24024;51.186;6.458;2023-07-28T06:03:41;20.60;80.70
38223;DHT22;24024;51.186;6.458;2023-07-28T06:06:12;20.70;80.50
38223;DHT22;24024;51.186;6.458;2023-07-28T06:08:40;20.80;80.10
38223;DHT22;24024;51.186;6.458;2023-07-28T06:11:07;20.90;79.80
38223;DHT22;24024;51.186;6.458;2023-07-28T06:13:36;20.80;79.90
38223;DHT22;24024;51.186;6.458;2023-07-28T06:16:03;20.80;80.10
38223;DHT22;24024;51.186;6.458;2023-07-28T06:18:32;20.60;80.60
38223;DHT22;24024;51.186;6.458;2023-07-28T06:20:59;20.60;80.40
38223;DHT22;24024;51.186;6.458;2023-07-28T06:23:25;20.50;81.20
38223;DHT22;24024;51.186;6.458;2023-07-28T06:25:52;20.70;80.80
38223;DHT22;24024;51.186;6.458;2023-07-28T06:28:24;20.70;80.80
38223;DHT22;24024;51.186;6.458;2023-07-28T06:30:55;20.60;80.80
38223;DHT22;24024;51.186;6.458;2023-07-28T06:33:28;20.50;81.40
38223;DHT22;24024;51.186;6.458;2023-07-28T06:35:55;20.50;81.50
38223;DHT22;24024;51.186;6.458;2023-07-28T06:38:26;20.60;81.10
38223;DHT22;24024;51.186;6.458;2023-07-28T06:40:55;21.00;80.50
38223;DHT22;24024;51.186;6.458;2023-07-28T06:43:22;21.00;80.10
38223;DHT22;24024;51.186;6.458;2023-07-28T06:45:53;21.00;79.90
38223;DHT22;24024;51.186;6.458;2023-07-28T06:48:22;20.90;80.50
38223;DHT22;24024;51.186;6.458;2023-07-28T06:50:51;21.00;80.50
38223;DHT22;24024;51.186;6.458;2023-07-28T06:53:18;20.90;80.60
38223;DHT22;24024;51.186;6.458;2023-07-28T06:55:45;20.70;81.10
38223;DHT22;24024;51.186;6.458;2023-07-28T06:58:12;20.80;80.70
38223;DHT22;24024;51.186;6.458;2023-07-28T07:00:42;20.70;81.00
38223;DHT22;24024;51.186;6.458;2023-07-28T07:03:13;20.80;81.00
38223;DHT22;24024;51.186;6.458;2023-07-28T07:05:44;20.60;81.50
38223;DHT22;24024;51.186;6.458;2023-07-28T07:08:10;20.70;81.40
38223;DHT22;24024;51.186;6.458;2023-07-28T07:10:39;20.60;81.60
38223;DHT22;24024;51.186;6.458;2023-07-28T07:13:09;20.40;82.10
38223;DHT22;24024;51.186;6.458;2023-07-28T07:15:38;20.30;82.50
38223;DHT22;24024;51.186;6.458;2023-07-28T07:18:08;20.30;82.50
38223;DHT22;24024;51.186;6.458;2023-07-28T07:20:36;20.40;82.50
38223;DHT22;24024;51.186;6.458;2023-07-28T07:23:04;20.40;82.30
38223;DHT22;24024;51.186;6.458;2023-07-28T07:25:33;20.40;82.30
38223;DHT22;24024;51.186;6.458;2023-07-28T07:28:02;20.50;82.40
38223;DHT22;24024;51.186;6.458;2023-07-28T07:30:32;20.60;82.20
38223;DHT22;24024;51.186;6.458;2023-07-28T07:33:02;20.50;82.20
38223;DHT22;24024;51.186;6.458;2023-07-28T07:35:36;20.50;82.20
38223;DHT22;24024;51.186;6.458;2023-07-28T07:38:04;20.60;81.80
38223;DHT22;24024;51.186;6.458;2023-07-28T07:40:35;20.50;81.70
38223;DHT22;24024;51.186;6.458;2023-07-28T07:43:03;20.60;81.80
38223;DHT22;24024;51.186;6.458;2023-07-28T07:45:32;20.50;81.70
38223;DHT22;24024;51.186;6.458;2023-07-28T07:47:59;20.50;81.80
38223;DHT22;24024;51.186;6.458;2023-07-28T07:50:26;20.40;82.10
38223;DHT22;24024;51.186;6.458;2023-07-28T07:52:58;20.50;81.90
38223;DHT22;24024;51.186;6.458;2023-07-28T07:55:30;20.40;82.00
38223;DHT22;24024;51.186;6.458;2023-07-28T07:58:01;20.40;82.30
38223;DHT22;24024;51.186;6.458;2023-07-28T08:00:28;20.40;82.20
38223;DHT22;24024;51.186;6.458;2023-07-28T08:02:57;20.30;82.60
38223;DHT22;24024;51.186;6.458;2023-07-28T08:05:26;20.30;82.90
38223;DHT22;24024;51.186;6.458;2023-07-28T08:07:54;20.40;82.60
38223;DHT22;24024;51.186;6.458;2023-07-28T08:10:21;20.40;82.20
38223;DHT22;24024;51.186;6.458;2023-07-28T08:12:49;20.40;82.40
38223;DHT22;24024;51.186;6.458;2023-07-28T08:15:16;20.60;82.30
38223;DHT22;24024;51.186;6.458;2023-07-28T08:17:42;20.50;82.00
38223;DHT22;24024;51.186;6.458;2023-07-28T08:20:12;20.60;81.60
38223;DHT22;24024;51.186;6.458;2023-07-28T08:22:39;20.60;81.70
38223;DHT22;24024;51.186;6.458;2023-07-28T08:25:09;20.60;82.00
38223;DHT22;24024;51.186;6.458;2023-07-28T08:27:38;20.60;81.90
38223;DHT22;24024;51.186;6.458;2023-07-28T08:30:05;20.80;81.50
38223;DHT22;24024;51.186;6.458;2023-07-28T08:32:32;20.70;81.60
38223;DHT22;24024;51.186;6.458;2023-07-28T08:35:00;20.70;81.60
38223;DHT22;24024;51.186;6.458;2023-07-28T08:37:32;20.80;81.60
38223;DHT22;24024;51.186;6.458;2023-07-28T08:39:59;20.80;81.40
38223;DHT22;24024;51.186;6.458;2023-07-28T08:42:29;20.80;81.00
38223;DHT22;24024;51.186;6.458;2023-07-28T08:44:57;20.80;81.30
38223;DHT22;24024;51.186;6.458;2023-07-28T08:47:23;21.00;81.20
38223;DHT22;24024;51.186;6.458;2023-07-28T08:49:50;21.10;81.00
38223;DHT22;24024;51.186;6.458;2023-07-28T08:52:17;21.00;80.70
38223;DHT22;24024;51.186;6.458;2023-07-28T08:54:46;21.10;80.70
38223;DHT22;24024;51.186;6.458;2023-07-28T08:57:13;21.10;80.80
38223;DHT22;24024;51.186;6.458;2023-07-28T08:59:43;21.10;80.70
38223;DHT22;24024;51.186;6.458;2023-07-28T09:02:18;21.10;80.70
38223;DHT22;24024;51.186;6.458;2023-07-28T09:04:47;21.10;80.40
38223;DHT22;24024;51.186;6.458;2023-07-28T09:07:14;21.10;80.50
38223;DHT22;24024;51.186;6.458;2023-07-28T09:09:41;21.10;80.30
38223;DHT22;24024;51.186;6.458;2023-07-28T09:12:11;21.10;80.70
38223;DHT22;24024;51.186;6.458;2023-07-28T09:14:38;21.10;80.40
38223;DHT22;24024;51.186;6.458;2023-07-28T09:17:12;21.10;80.30
38223;DHT22;24024;51.186;6.458;2023-07-28T09:19:50;21.20;80.20
38223;DHT22;24024;51.186;6.458;2023-07-28T09:22:23;21.20;80.30
38223;DHT22;24024;51.186;6.458;2023-07-28T09:24:50;21.30;80.20
38223;DHT22;24024;51.186;6.458;2023-07-28T09:27:25;21.50;80.00
38223;DHT22;24024;51.186;6.458;2023-07-28T09:29:54;21.60;79.50
38223;DHT22;24024;51.186;6.458;2023-07-28T09:32:32;21.50;79.40
38223;DHT22;24024;51.186;6.458;2023-07-28T09:35:09;21.60;79.50
38223;DHT22;24024;51.186;6.458;2023-07-28T09:37:39;21.70;79.20
38223;DHT22;24024;51.186;6.458;2023-07-28T09:40:11;21.60;79.20
38223;DHT22;24024;51.186;6.458;2023-07-28T09:42:40;21.70;78.90
38223;DHT22;24024;51.186;6.458;2023-07-28T09:45:07;21.90;78.40
38223;DHT22;24024;51.186;6.458;2023-07-28T09:48:05;21.80;78.00
38223;DHT22;24024;51.186;6.458;2023-07-28T09:50:32;21.80;77.90
38223;DHT22;24024;51.186;6.458;2023-07-28T09:53:07;21.90;77.40
38223;DHT22;24024;51.186;6.458;2023-07-28T09:55:35;22.00;77.30
38223;DHT22;24024;51.186;6.458;2023-07-28T09:58:05;22.00;77.40
38223;DHT22;24024;51.186;6.458;2023-07-28T10:00:35;22.00;77.50
38223;DHT22;24024;51.186;6.458;2023-07-28T10:03:02;22.00;77.30
38223;DHT22;24024;51.186;6.458;2023-07-28T10:05:33;22.10;77.10
38223;DHT22;24024;51.186;6.458;2023-07-28T10:08:03;22.10;76.60
38223;DHT22;24024;51.186;6.458;2023-07-28T10:10:31;22.10;76.50
38223;DHT22;24024;51.186;6.458;2023-07-28T10:13:00;22.20;76.90
38223;DHT22;24024;51.186;6.458;2023-07-28T10:15:29;22.10;77.20
38223;DHT22;24024;51.186;6.458;2023-07-28T10:17:57;22.00;78.20
38223;DHT22;24024;51.186;6.458;2023-07-28T10:20:34;22.00;78.20
38223;DHT22;24024;51.186;6.458;2023-07-28T10:23:05;22.10;78.30
38223;DHT22;24024;51.186;6.458;2023-07-28T10:25:36;22.20;78.40
38223;DHT22;24024;51.186;6.458;2023-07-28T10:28:25;22.20;78.60
38223;DHT22;24024;51.186;6.458;2023-07-28T10:30:53;22.10;78.50
38223;DHT22;24024;51.186;6.458;2023-07-28T10:33:53;22.20;78.50
38223;DHT22;24024;51.186;6.458;2023-07-28T10:39:16;22.30;78.70
38223;DHT22;24024;51.186;6.458;2023-07-28T10:42:09;22.30;78.80
38223;DHT22;24024;51.186;6.458;2023-07-28T10:44:36;22.50;78.20
38223;DHT22;24024;51.186;6.458;2023-07-28T10:47:10;22.40;77.40
38223;DHT22;24024;51.186;6.458;2023-07-28T10:49:37;22.30;78.30
38223;DHT22;24024;51.186;6.458;2023-07-28T10:52:04;22.30;78.30
38223;DHT22;24024;51.186;6.458;2023-07-28T10:54:32;22.20;78.40
38223;DHT22;24024;51.186;6.458;2023-07-28T10:57:02;22.30;78.10
38223;DHT22;24024;51.186;6.458;2023-07-28T10:59:30;22.50;77.20
38223;DHT22;24024;51.186;6.458;2023-07-28T11:01:56;22.40;76.50
38223;DHT22;24024;51.186;6.458;2023-07-28T11:04:23;22.30;76.30
38223;DHT22;24024;51.186;6.458;2023-07-28T11:06:50;22.40;77.00
38223;DHT22;24024;51.186;6.458;2023-07-28T11:09:21;22.30;77.40
38223;DHT22;24024;51.186;6.458;2023-07-28T11:11:49;22.20;77.50
38223;DHT22;24024;51.186;6.458;2023-07-28T11:14:19;22.10;78.40
38223;DHT22;24024;51.186;6.458;2023-07-28T11:16:49;22.10;78.30
38223;DHT22;24024;51.186;6.458;2023-07-28T11:19:18;22.20;78.50
38223;DHT22;24024;51.186;6.458;2023-07-28T11:21:53;22.20;78.70
38223;DHT22;24024;51.186;6.458;2023-07-28T11:24:24;22.20;78.30
38223;DHT22;24024;51.186;6.458;2023-07-28T11:26:52;22.20;79.30
38223;DHT22;24024;51.186;6.458;2023-07-28T11:29:20;22.30;79.10
38223;DHT22;24024;51.186;6.458;2023-07-28T11:31:52;22.50;78.30
38223;DHT22;24024;51.186;6.458;2023-07-28T11:34:20;22.50;77.50
38223;DHT22;24024;51.186;6.458;2023-07-28T11:36:49;22.60;78.30
38223;DHT22;24024;51.186;6.458;2023-07-28T11:39:24;22.60;77.20
38223;DHT22;24024;51.186;6.458;2023-07-28T11:41:51;22.70;76.20
38223;DHT22;24024;51.186;6.458;2023-07-28T11:44:21;22.70;74.70
38223;DHT22;24024;51.186;6.458;2023-07-28T11:46:50;22.60;75.10
38223;DHT22;24024;51.186;6.458;2023-07-28T11:49:21;22.70;75.40
38223;DHT22;24024;51.186;6.458;2023-07-28T11:51:56;22.70;74.80
38223;DHT22;24024;51.186;6.458;2023-07-28T11:54:29;22.80;74.00
38223;DHT22;24024;51.186;6.458;2023-07-28T11:56:56;22.80;72.30
38223;DHT22;24024;51.186;6.458;2023-07-28T11:59:24;22.80;73.00
38223;DHT22;24024;51.186;6.458;2023-07-28T12:04:27;22.90;72.30
38223;DHT22;24024;51.186;6.458;2023-07-28T12:12:38;23.00;72.10
38223;DHT22;24024;51.186;6.458;2023-07-28T12:15:22;23.10;72.00
38223;DHT22;24024;51.186;6.458;2023-07-28T12:20:46;23.30;71.10
38223;DHT22;24024;51.186;6.458;2023-07-28T12:23:15;23.10;71.20
38223;DHT22;24024;51.186;6.458;2023-07-28T12:25:45;23.20;71.50
38223;DHT22;24024;51.186;6.458;2023-07-28T12:28:12;23.00;71.80
38223;DHT22;24024;51.186;6.458;2023-07-28T12:30:44;23.00;72.40
38223;DHT22;24024;51.186;6.458;2023-07-28T12:33:13;23.00;72.60
38223;DHT22;24024;51.186;6.458;2023-07-28T12:35:44;23.00;72.90
38223;DHT22;24024;51.186;6.458;2023-07-28T12:38:14;23.00;73.40
38223;DHT22;24024;51.186;6.458;2023-07-28T12:40:43;23.00;73.60
38223;DHT22;24024;51.186;6.458;2023-07-28T12:43:13;23.00;73.60
38223;DHT22;24024;51.186;6.458;2023-07-28T12:45:46;23.10;74.30
38223;DHT22;24024;51.186;6.458;2023-07-28T12:48:16;22.90;74.90
38223;DHT22;24024;51.186;6.458;2023-07-28T12:50:47;22.90;74.90
38223;DHT22;24024;51.186;6.458;2023-07-28T12:53:17;23.00;74.90
38223;DHT22;24024;51.186;6.458;2023-07-28T12:55:49;23.00;75.20
38223;DHT22;24024;51.186;6.458;2023-07-28T12:58:21;23.00;75.30
38223;DHT22;24024;51.186;6.458;2023-07-28T13:00:57;22.90;75.50
38223;DHT22;24024;51.186;6.458;2023-07-28T13:03:31;23.00;75.90
38223;DHT22;24024;51.186;6.458;2023-07-28T13:05:58;23.00;75.60
38223;DHT22;24024;51.186;6.458;2023-07-28T13:08:25;23.10;75.30
38223;DHT22;24024;51.186;6.458;2023-07-28T13:10:55;23.10;74.70
38223;DHT22;24024;51.186;6.458;2023-07-28T13:13:24;23.10;74.90
38223;DHT22;24024;51.186;6.458;2023-07-28T13:15:53;23.10;74.60
38223;DHT22;24024;51.186;6.458;2023-07-28T13:18:24;23.20;74.80
38223;DHT22;24024;51.186;6.458;2023-07-28T13:20:54;23.10;74.30
38223;DHT22;24024;51.186;6.458;2023-07-28T13:23:21;23.10;74.50
38223;DHT22;24024;51.186;6.458;2023-07-28T13:25:48;23.20;74.30
38223;DHT22;24024;51.186;6.458;2023-07-28T13:28:15;23.30;74.10
38223;DHT22;24024;51.186;6.458;2023-07-28T13:30:44;23.30;74.00
38223;DHT22;24024;51.186;6.458;2023-07-28T13:33:11;23.30;74.30
38223;DHT22;24024;51.186;6.458;2023-07-28T13:35:38;23.30;74.40
38223;DHT22;24024;51.186;6.458;2023-07-28T13:38:04;23.40;75.00
38223;DHT22;24024;51.186;6.458;2023-07-28T13:40:31;23.40;74.90
38223;DHT22;24024;51.186;6.458;2023-07-28T13:43:03;23.50;74.80
38223;DHT22;24024;51.186;6.458;2023-07-28T13:45:35;23.70;73.90
38223;DHT22;24024;51.186;6.458;2023-07-28T13:48:06;23.70;73.30
38223;DHT22;24024;51.186;6.458;2023-07-28T13:50:53;23.70;73.70
38223;DHT22;24024;51.186;6.458;2023-07-28T13:53:22;23.80;74.40
38223;DHT22;24024;51.186;6.458;2023-07-28T13:55:52;23.90;73.30
38223;DHT22;24024;51.186;6.458;2023-07-28T13:58:24;24.00;72.80
38223;DHT22;24024;51.186;6.458;2023-07-28T14:00:51;24.00;71.90
38223;DHT22;24024;51.186;6.458;2023-07-28T14:03:18;24.10;72.20
38223;DHT22;24024;51.186;6.458;2023-07-28T14:05:45;24.00;71.40
38223;DHT22;24024;51.186;6.458;2023-07-28T14:08:15;24.10;71.50
38223;DHT22;24024;51.186;6.458;2023-07-28T14:10:46;24.10;71.60
38223;DHT22;24024;51.186;6.458;2023-07-28T14:13:13;24.10;72.30
38223;DHT22;24024;51.186;6.458;2023-07-28T14:15:40;24.10;73.00
38223;DHT22;24024;51.186;6.458;2023-07-28T14:18:12;24.00;73.80
38223;DHT22;24024;51.186;6.458;2023-07-28T14:20:39;24.00;73.90
38223;DHT22;24024;51.186;6.458;2023-07-28T14:23:26;24.00;73.60
38223;DHT22;24024;51.186;6.458;2023-07-28T14:25:57;23.80;72.90
38223;DHT22;24024;51.186;6.458;2023-07-28T14:28:24;23.80;74.30
38223;DHT22;24024;51.186;6.458;2023-07-28T14:30:53;23.80;74.50
38223;DHT22;24024;51.186;6.458;2023-07-28T14:33:20;23.90;73.90
38223;DHT22;24024;51.186;6.458;2023-07-28T14:35:50;23.80;74.00
38223;DHT22;24024;51.186;6.458;2023-07-28T14:38:19;23.70;74.00
38223;DHT22;24024;51.186;6.458;2023-07-28T14:40:51;23.80;74.00
38223;DHT22;24024;51.186;6.458;2023-07-28T14:43:20;23.70;74.50
38223;DHT22;24024;51.186;6.458;2023-07-28T14:45:49;23.80;74.70
38223;DHT22;24024;51.186;6.458;2023-07-28T14:48:17;23.80;74.10
38223;DHT22;24024;51.186;6.458;2023-07-28T14:50:46;23.90;73.80
38223;DHT22;24024;51.186;6.458;2023-07-28T14:53:33;23.80;73.20
38223;DHT22;24024;51.186;6.458;2023-07-28T14:56:03;23.70;73.40
38223;DHT22;24024;51.186;6.458;2023-07-28T14:58:30;23.60;74.00
38223;DHT22;24024;51.186;6.458;2023-07-28T15:00:57;23.60;74.30
38223;DHT22;24024;51.186;6.458;2023-07-28T15:03:27;23.60;74.30
38223;DHT22;24024;51.186;6.458;2023-07-28T15:05:54;23.50;74.70
38223;DHT22;24024;51.186;6.458;2023-07-28T15:08:24;23.50;75.90
38223;DHT22;24024;51.186;6.458;2023-07-28T15:10:51;23.50;76.60
38223;DHT22;24024;51.186;6.458;2023-07-28T15:13:19;23.50;76.20
38223;DHT22;24024;51.186;6.458;2023-07-28T15:15:47;23.60;75.50
38223;DHT22;24024;51.186;6.458;2023-07-28T15:18:17;23.50;75.70
38223;DHT22;24024;51.186;6.458;2023-07-28T15:20:44;23.60;75.10
38223;DHT22;24024;51.186;6.458;2023-07-28T15:23:13;23.80;74.40
38223;DHT22;24024;51.186;6.458;2023-07-28T15:25:42;23.90;73.70
38223;DHT22;24024;51.186;6.458;2023-07-28T15:28:14;23.90;72.40
38223;DHT22;24024;51.186;6.458;2023-07-28T15:30:41;23.90;73.20
38223;DHT22;24024;51.186;6.458;2023-07-28T15:33:12;23.80;73.30
38223;DHT22;24024;51.186;6.458;2023-07-28T15:35:38;23.80;74.40
38223;DHT22;24024;51.186;6.458;2023-07-28T15:38:08;23.80;73.20
38223;DHT22;24024;51.186;6.458;2023-07-28T15:40:37;23.90;73.10
38223;DHT22;24024;51.186;6.458;2023-07-28T15:43:04;24.10;72.10
38223;DHT22;24024;51.186;6.458;2023-07-28T15:45:31;24.10;70.70
38223;DHT22;24024;51.186;6.458;2023-07-28T15:48:00;24.10;70.50
38223;DHT22;24024;51.186;6.458;2023-07-28T15:50:30;24.10;70.70
38223;DHT22;24024;51.186;6.458;2023-07-28T15:52:59;24.30;70.60
38223;DHT22;24024;51.186;6.458;2023-07-28T15:55:28;24.40;70.80
38223;DHT22;24024;51.186;6.458;2023-07-28T15:57:57;24.60;70.40
38223;DHT22;24024;51.186;6.458;2023-07-28T16:00:26;24.60;69.60
38223;DHT22;24024;51.186;6.458;2023-07-28T16:02:53;24.70;68.80